createdAt,value
2022-11-23T00:00:33.901Z,0.37
2022-11-23T00:03:01.755Z,0.30
2022-11-23T00:05:30.558Z,0.20
2022-11-23T00:07:58.230Z,0.47
2022-11-23T00:10:25.875Z,0.50
2022-11-23T00:12:53.537Z,0.67
2022-11-23T00:15:21.224Z,0.67
2022-11-23T00:17:50.236Z,0.60
2022-11-23T00:20:18.192Z,0.40
2022-11-23T00:22:45.821Z,0.40
2022-11-23T00:25:13.538Z,0.40
2022-11-23T00:27:41.232Z,0.40
2022-11-23T00:30:10.190Z,0.50
2022-11-23T00:32:37.855Z,0.40
2022-11-23T00:35:07.384Z,0.40
2022-11-23T00:37:35.041Z,0.40
2022-11-23T00:40:02.694Z,0.30
2022-11-23T00:42:35.102Z,0.47
2022-11-23T00:45:05.828Z,0.40
2022-11-23T00:47:33.532Z,0.40
2022-11-23T00:50:01.176Z,0.50
2022-11-23T00:52:30.175Z,0.50
2022-11-23T00:54:57.828Z,0.40
2022-11-23T00:57:25.506Z,0.30
2022-11-23T00:59:53.392Z,0.40
2022-11-23T01:02:21.042Z,0.30
2022-11-23T01:04:48.699Z,0.40
2022-11-23T01:07:16.390Z,0.33
2022-11-23T01:09:45.434Z,0.30
2022-11-23T01:12:13.152Z,0.40
2022-11-23T01:14:41.068Z,0.20
2022-11-23T01:17:08.708Z,0.30
2022-11-23T01:19:36.351Z,0.30
2022-11-23T01:22:04.014Z,0.30
2022-11-23T01:24:31.686Z,0.30
2022-11-23T01:27:00.698Z,0.30
2022-11-23T01:29:28.366Z,0.40
2022-11-23T01:31:55.998Z,0.30
2022-11-23T01:34:23.688Z,0.40
2022-11-23T01:36:51.349Z,0.30
2022-11-23T01:39:19.043Z,0.30
2022-11-23T01:41:46.859Z,0.20
2022-11-23T01:44:28.302Z,0.30
2022-11-23T01:46:56.454Z,0.30
2022-11-23T01:49:24.387Z,0.30
2022-11-23T01:51:54.308Z,0.30
2022-11-23T01:54:26.440Z,0.20
2022-11-23T01:56:56.907Z,0.30
2022-11-23T01:59:26.754Z,0.40
2022-11-23T02:01:54.475Z,0.23
2022-11-23T02:04:24.523Z,0.20
2022-11-23T02:06:53.694Z,0.20
2022-11-23T02:09:22.804Z,0.40
2022-11-23T02:11:50.455Z,0.50
2022-11-23T02:14:23.239Z,0.70
2022-11-23T02:16:52.795Z,0.90
2022-11-23T02:19:28.245Z,0.90
2022-11-23T02:21:56.515Z,1.00
2022-11-23T02:24:27.583Z,0.90
2022-11-23T02:26:56.905Z,0.70
2022-11-23T02:29:25.868Z,0.50
2022-11-23T02:31:53.563Z,0.80
2022-11-23T02:34:21.489Z,0.60
2022-11-23T02:36:50.504Z,0.60
2022-11-23T02:39:20.207Z,0.60
2022-11-23T02:41:50.592Z,0.70
2022-11-23T02:44:33.276Z,0.70
2022-11-23T02:47:01.194Z,0.40
2022-11-23T02:49:29.118Z,0.40
2022-11-23T02:51:56.963Z,0.50
2022-11-23T02:54:24.651Z,0.40
2022-11-23T02:56:52.316Z,0.20
2022-11-23T02:59:20.665Z,0.20
2022-11-23T03:01:49.747Z,0.30
2022-11-23T03:04:17.467Z,0.20
2022-11-23T03:06:45.107Z,0.30
2022-11-23T03:09:12.769Z,0.20
2022-11-23T03:11:40.399Z,0.30
2022-11-23T03:14:08.071Z,0.30
2022-11-23T03:16:35.734Z,0.40
2022-11-23T03:19:05.986Z,0.37
2022-11-23T03:21:33.627Z,0.40
2022-11-23T03:24:01.300Z,0.50
2022-11-23T03:26:28.952Z,0.47
2022-11-23T03:28:56.614Z,0.40
2022-11-23T03:31:24.313Z,0.20
2022-11-23T03:33:52.307Z,0.30
2022-11-23T03:36:21.303Z,0.40
2022-11-23T03:38:48.981Z,0.30
2022-11-23T03:41:16.673Z,0.30
2022-11-23T03:43:44.363Z,0.27
2022-11-23T03:46:12.016Z,0.20
2022-11-23T03:48:39.670Z,0.40
2022-11-23T03:51:07.508Z,0.30
2022-11-23T03:53:36.544Z,0.40
2022-11-23T03:56:04.298Z,0.40
2022-11-23T03:58:31.990Z,0.40
2022-11-23T04:00:59.690Z,0.30
2022-11-23T04:03:27.361Z,0.47
2022-11-23T04:05:55.044Z,0.30
2022-11-23T04:08:22.732Z,0.60
2022-11-23T04:10:51.741Z,0.60
2022-11-23T04:13:19.440Z,0.40
2022-11-23T04:15:47.064Z,0.60
2022-11-23T04:18:14.760Z,0.60
2022-11-23T04:20:42.431Z,0.50
2022-11-23T04:23:13.297Z,0.70
2022-11-23T04:25:41.540Z,0.70
2022-11-23T04:28:10.523Z,0.70
2022-11-23T04:30:38.229Z,1.10
2022-11-23T04:33:05.987Z,0.80
2022-11-23T04:35:34.189Z,0.70
2022-11-23T04:38:02.446Z,0.77
2022-11-23T04:40:31.599Z,0.50
2022-11-23T04:43:01.737Z,0.50
2022-11-23T04:45:31.334Z,0.50
2022-11-23T04:47:59.000Z,0.60
2022-11-23T04:50:26.633Z,0.53
2022-11-23T04:52:54.272Z,0.53
2022-11-23T04:55:21.917Z,0.50
2022-11-23T04:57:49.560Z,0.50
2022-11-23T05:00:17.987Z,0.43
2022-11-23T05:02:47.280Z,0.50
2022-11-23T05:05:15.086Z,0.37
2022-11-23T05:07:42.774Z,0.50
2022-11-23T05:10:11.235Z,0.50
2022-11-23T05:15:14.219Z,0.70
2022-11-23T05:17:41.871Z,0.50
2022-11-23T05:20:12.615Z,0.43
2022-11-23T05:22:40.276Z,0.60
2022-11-23T05:25:08.656Z,0.50
2022-11-23T05:27:36.364Z,0.70
2022-11-23T05:30:04.424Z,0.63
2022-11-23T05:32:32.142Z,0.80
2022-11-23T05:34:59.807Z,0.70
2022-11-23T05:37:28.797Z,0.50
2022-11-23T05:39:56.488Z,0.53
2022-11-23T05:42:24.123Z,0.70
2022-11-23T05:44:51.787Z,0.83
2022-11-23T05:47:22.052Z,0.60
2022-11-23T05:49:50.394Z,0.70
2022-11-23T05:52:18.426Z,0.90
2022-11-23T05:54:47.396Z,1.03
2022-11-23T05:57:16.051Z,0.77
2022-11-23T05:59:43.744Z,2.80
2022-11-23T06:02:11.360Z,3.40
2022-11-23T06:04:38.988Z,3.03
2022-11-23T06:07:06.787Z,2.50
2022-11-23T06:09:34.716Z,2.40
2022-11-23T06:12:03.926Z,1.93
2022-11-23T06:14:31.589Z,2.70
2022-11-23T06:16:59.275Z,3.37
2022-11-23T06:19:26.951Z,2.93
2022-11-23T06:21:54.614Z,2.40
2022-11-23T06:24:22.287Z,2.30
2022-11-23T06:26:49.952Z,2.20
2022-11-23T06:29:19.057Z,2.90
2022-11-23T06:31:47.132Z,3.03
2022-11-23T06:34:15.151Z,3.03
2022-11-23T06:36:43.167Z,3.63
2022-11-23T06:39:11.147Z,4.37
2022-11-23T06:41:38.914Z,4.30
2022-11-23T06:44:06.685Z,3.87
2022-11-23T06:46:35.752Z,3.57
2022-11-23T06:49:03.483Z,2.80
2022-11-23T06:51:31.124Z,3.67
2022-11-23T06:53:58.789Z,3.30
2022-11-23T06:56:26.462Z,2.97
2022-11-23T06:58:54.132Z,3.20
2022-11-23T07:01:21.892Z,3.50
2022-11-23T07:03:51.019Z,3.43
2022-11-23T07:06:18.684Z,3.30
2022-11-23T07:08:46.568Z,3.00
2022-11-23T07:11:14.276Z,3.60
2022-11-23T07:13:41.974Z,3.17
2022-11-23T07:16:09.773Z,3.43
2022-11-23T07:18:37.393Z,3.80
2022-11-23T07:21:06.416Z,3.80
2022-11-23T07:23:38.318Z,3.73
2022-11-23T07:26:06.144Z,3.77
2022-11-23T07:28:33.831Z,4.03
2022-11-23T07:31:01.532Z,4.50
2022-11-23T07:33:29.172Z,4.43
2022-11-23T07:35:57.006Z,4.57
2022-11-23T07:38:26.029Z,3.63
2022-11-23T07:40:53.711Z,3.80
2022-11-23T07:43:21.424Z,3.57
2022-11-23T07:45:49.088Z,3.67
2022-11-23T07:48:16.709Z,3.60
2022-11-23T07:50:44.379Z,3.33
2022-11-23T07:53:12.097Z,3.40
2022-11-23T07:55:41.367Z,3.63
2022-11-23T07:58:10.395Z,3.60
2022-11-23T08:00:38.707Z,3.37
2022-11-23T08:05:54.092Z,3.57
2022-11-23T08:08:21.763Z,3.63
2022-11-23T08:10:54.015Z,3.40
2022-11-23T08:13:22.853Z,4.30
2022-11-23T08:15:55.317Z,4.07
2022-11-23T08:18:23.858Z,3.80
2022-11-23T08:20:51.709Z,4.20
2022-11-23T08:23:19.420Z,3.77
2022-11-23T08:25:47.292Z,4.40
2022-11-23T08:28:16.327Z,4.07
2022-11-23T08:30:44.012Z,3.50
2022-11-23T08:33:13.381Z,3.90
2022-11-23T08:35:42.456Z,3.97
2022-11-23T08:38:11.550Z,3.40
2022-11-23T08:40:39.642Z,3.80
2022-11-23T08:43:07.523Z,4.00
2022-11-23T08:45:36.617Z,3.53
2022-11-23T08:48:04.975Z,3.93
2022-11-23T08:50:34.377Z,4.17
2022-11-23T08:53:02.149Z,3.77
2022-11-23T08:55:30.433Z,3.80
2022-11-23T08:57:58.830Z,3.60
2022-11-23T09:00:26.906Z,3.33
2022-11-23T09:02:57.083Z,3.70
2022-11-23T09:05:24.715Z,3.40
2022-11-23T09:07:52.433Z,3.10
2022-11-23T09:10:20.414Z,3.23
2022-11-23T09:12:48.572Z,3.30
2022-11-23T09:15:16.643Z,3.00
2022-11-23T09:17:44.357Z,2.73
2022-11-23T09:20:13.918Z,2.77
2022-11-23T09:22:41.643Z,2.70
2022-11-23T09:25:10.365Z,2.73
2022-11-23T09:27:38.269Z,2.50
2022-11-23T09:30:07.102Z,2.70
2022-11-23T09:32:34.742Z,2.30
2022-11-23T09:35:02.691Z,2.70
2022-11-23T09:37:31.753Z,2.30
2022-11-23T09:39:59.574Z,2.47
2022-11-23T09:42:52.846Z,2.37
2022-11-23T09:45:24.792Z,1.93
2022-11-23T09:48:18.782Z,2.40
2022-11-23T09:50:48.370Z,1.80
2022-11-23T09:53:21.254Z,2.30
2022-11-23T09:55:50.040Z,2.43
2022-11-23T09:58:20.060Z,2.20
2022-11-23T10:00:51.575Z,2.23
2022-11-23T10:03:19.697Z,2.60
2022-11-23T10:05:54.992Z,2.03
2022-11-23T10:08:37.667Z,2.17
2022-11-23T10:11:20.329Z,2.17
2022-11-23T10:13:54.455Z,2.40
2022-11-23T10:16:31.043Z,1.93
2022-11-23T10:19:02.853Z,1.80
2022-11-23T10:21:38.604Z,2.23
2022-11-23T10:24:14.331Z,2.43
2022-11-23T10:26:43.796Z,2.10
2022-11-23T10:29:14.853Z,2.53
2022-11-23T10:31:45.890Z,2.40
2022-11-23T10:34:15.404Z,2.00
2022-11-23T10:36:43.620Z,2.30
2022-11-23T10:39:21.316Z,2.47
2022-11-23T10:41:49.098Z,2.50
2022-11-23T10:44:30.676Z,2.80
2022-11-23T10:46:59.276Z,5.17
2022-11-23T10:49:29.306Z,5.07
2022-11-23T10:51:58.608Z,4.00
2022-11-23T10:54:30.872Z,3.77
2022-11-23T10:57:00.078Z,3.20
2022-11-23T10:59:30.281Z,3.27
2022-11-23T11:02:02.750Z,2.43
2022-11-23T11:04:30.906Z,2.50
2022-11-23T11:07:25.069Z,2.47
2022-11-23T11:09:56.756Z,2.60
2022-11-23T11:12:24.904Z,2.20
2022-11-23T11:15:11.251Z,2.27
2022-11-23T11:17:41.387Z,2.20
2022-11-23T11:20:33.073Z,2.10
2022-11-23T11:23:02.695Z,2.40
2022-11-23T11:25:34.061Z,2.40
2022-11-23T11:28:03.884Z,2.60
2022-11-23T11:30:41.541Z,2.30
2022-11-23T11:33:13.131Z,2.80
2022-11-23T11:35:43.477Z,2.60
2022-11-23T11:38:15.045Z,2.37
2022-11-23T11:40:47.312Z,2.93
2022-11-23T11:43:18.887Z,2.60
2022-11-23T11:46:21.419Z,2.50
2022-11-23T11:48:39.337Z,2.60
2022-11-23T11:51:09.724Z,2.37
2022-11-23T11:53:42.485Z,2.73
2022-11-23T11:56:28.903Z,2.73
2022-11-23T11:58:59.217Z,3.27
2022-11-23T12:01:34.749Z,4.10
2022-11-23T12:04:07.083Z,3.60
2022-11-23T12:06:39.047Z,3.10
2022-11-23T12:09:11.637Z,3.10
2022-11-23T12:11:40.777Z,2.77
2022-11-23T12:14:13.515Z,2.60
2022-11-23T12:16:55.562Z,2.83
2022-11-23T12:19:40.597Z,2.60
2022-11-23T12:22:26.541Z,2.77
2022-11-23T12:25:11.484Z,2.90
2022-11-23T12:27:49.335Z,2.70
2022-11-23T12:30:25.881Z,2.50
2022-11-23T12:33:18.809Z,2.20
2022-11-23T12:35:58.309Z,2.87
2022-11-23T12:38:31.962Z,2.50
2022-11-23T12:41:24.854Z,2.50
2022-11-23T12:44:09.093Z,2.27
2022-11-23T12:46:42.390Z,2.50
2022-11-23T12:49:22.487Z,2.33
2022-11-23T12:51:57.857Z,2.40
2022-11-23T12:54:54.203Z,2.60
2022-11-23T12:57:24.080Z,2.40
2022-11-23T12:59:56.091Z,2.53
2022-11-23T13:02:45.499Z,2.50
2022-11-23T13:05:27.657Z,2.80
2022-11-23T13:08:10.878Z,3.10
2022-11-23T13:10:54.059Z,2.80
2022-11-23T13:13:48.827Z,3.00
2022-11-23T13:16:26.839Z,3.70
2022-11-23T13:19:05.163Z,3.73
2022-11-23T13:21:37.760Z,3.67
2022-11-23T13:24:05.998Z,3.50
2022-11-23T13:26:33.666Z,3.80
2022-11-23T13:29:01.883Z,4.00
2022-11-23T13:31:31.615Z,3.87
2022-11-23T13:34:00.881Z,3.70
2022-11-23T13:37:12.198Z,4.03
2022-11-23T13:40:03.588Z,5.97
2022-11-23T13:42:33.350Z,10.17
2022-11-23T13:45:27.454Z,10.27
2022-11-23T13:48:54.960Z,9.10
2022-11-23T13:51:11.317Z,9.63
2022-11-23T13:53:41.007Z,9.20
2022-11-23T13:56:24.048Z,8.63
2022-11-23T13:58:53.730Z,9.40
2022-11-23T14:01:59.238Z,10.73
2022-11-23T14:04:29.573Z,8.70
2022-11-23T14:06:59.544Z,7.30
2022-11-23T14:09:32.406Z,5.57
2022-11-23T14:12:04.645Z,5.00
2022-11-23T14:14:42.728Z,4.70
2022-11-23T14:17:24.749Z,3.50
2022-11-23T14:20:18.529Z,3.50
2022-11-23T14:22:55.885Z,3.23
2022-11-23T14:25:43.332Z,3.10
2022-11-23T14:28:22.243Z,2.53
2022-11-23T14:31:00.343Z,2.80
2022-11-23T14:33:33.265Z,2.57
2022-11-23T14:36:12.289Z,2.80
2022-11-23T14:39:05.971Z,2.50
2022-11-23T14:41:36.222Z,2.10
2022-11-23T14:44:04.382Z,1.80
2022-11-23T14:46:32.164Z,1.80
2022-11-23T14:49:07.911Z,1.70
2022-11-23T14:51:42.845Z,1.70
2022-11-23T14:54:14.457Z,1.63
2022-11-23T14:56:45.262Z,2.33
2022-11-23T14:59:20.707Z,2.50
2022-11-23T15:01:49.798Z,2.90
2022-11-23T15:04:24.395Z,2.80
2022-11-23T15:06:57.258Z,2.80
2022-11-23T15:09:35.581Z,3.00
2022-11-23T15:12:07.538Z,2.90
2022-11-23T15:14:35.825Z,2.80
2022-11-23T15:17:17.162Z,2.90
2022-11-23T15:19:44.887Z,2.90
2022-11-23T15:22:19.950Z,3.30
2022-11-23T15:24:47.767Z,3.10
2022-11-23T15:27:18.065Z,3.10
2022-11-23T15:29:52.925Z,3.13
2022-11-23T15:32:31.588Z,3.07
2022-11-23T15:35:03.037Z,3.40
2022-11-23T15:37:32.614Z,2.87
2022-11-23T15:40:00.815Z,2.97
2022-11-23T15:42:28.888Z,2.83
2022-11-23T15:44:56.737Z,2.33
2022-11-23T15:47:27.410Z,2.80
2022-11-23T15:50:01.327Z,2.50
2022-11-23T15:52:31.388Z,2.13
2022-11-23T15:55:08.810Z,2.67
2022-11-23T15:57:37.285Z,2.87
2022-11-23T16:00:06.543Z,5.17
2022-11-23T16:02:34.955Z,5.93
2022-11-23T16:05:11.280Z,6.30
2022-11-23T16:07:51.040Z,6.00
2022-11-23T16:10:22.761Z,6.27
2022-11-23T16:12:52.178Z,5.53
2022-11-23T16:15:42.242Z,6.20
2022-11-23T16:18:23.044Z,5.83
2022-11-23T16:20:53.310Z,5.97
2022-11-23T16:23:22.564Z,6.40
2022-11-23T16:25:57.047Z,6.87
2022-11-23T16:28:28.705Z,10.10
2022-11-23T16:30:57.756Z,13.43
2022-11-23T16:33:26.251Z,14.23
2022-11-23T16:35:54.058Z,13.63
2022-11-23T16:38:22.236Z,12.80
2022-11-23T16:40:50.224Z,15.40
2022-11-23T16:43:19.615Z,15.03
2022-11-23T16:45:48.907Z,13.77
2022-11-23T16:48:38.806Z,13.57
2022-11-23T16:51:07.116Z,11.77
2022-11-23T16:54:07.781Z,11.37
2022-11-23T16:56:24.213Z,10.40
2022-11-23T16:58:53.281Z,9.63
2022-11-23T17:01:22.290Z,9.47
2022-11-23T17:03:50.041Z,9.17
2022-11-23T17:06:18.566Z,8.57
2022-11-23T17:08:46.522Z,8.47
2022-11-23T17:11:15.861Z,8.50
2022-11-23T17:13:44.168Z,8.60
2022-11-23T17:16:16.319Z,8.07
2022-11-23T17:18:43.994Z,7.93
2022-11-23T17:21:11.759Z,7.87
2022-11-23T17:23:40.848Z,8.20
2022-11-23T17:26:08.981Z,8.10
2022-11-23T17:28:36.666Z,7.23
2022-11-23T17:31:04.397Z,8.00
2022-11-23T17:33:33.599Z,8.47
2022-11-23T17:36:01.309Z,7.93
2022-11-23T17:38:29.067Z,8.77
2022-11-23T17:40:56.738Z,9.83
2022-11-23T17:43:24.458Z,11.83
2022-11-23T17:45:52.222Z,14.70
2022-11-23T17:48:20.530Z,15.77
2022-11-23T17:50:49.506Z,14.60
2022-11-23T17:53:21.219Z,15.47
2022-11-23T17:55:52.633Z,14.17
2022-11-23T17:58:20.359Z,12.87
2022-11-23T18:00:48.395Z,12.30
2022-11-23T18:03:16.114Z,11.27
2022-11-23T18:05:43.776Z,11.00
2022-11-23T18:08:13.025Z,11.00
2022-11-23T18:10:40.772Z,11.07
2022-11-23T18:13:08.537Z,11.20
2022-11-23T18:15:36.273Z,11.30
2022-11-23T18:18:05.029Z,12.10
2022-11-23T18:20:33.096Z,12.83
2022-11-23T18:23:00.758Z,14.13
2022-11-23T18:25:30.058Z,15.43
2022-11-23T18:27:57.764Z,14.30
2022-11-23T18:30:25.425Z,12.80
2022-11-23T18:32:53.108Z,13.43
2022-11-23T18:35:20.786Z,12.27
2022-11-23T18:37:48.530Z,11.70
2022-11-23T18:40:16.342Z,11.50
2022-11-23T18:42:45.319Z,11.10
2022-11-23T18:45:13.007Z,12.53
2022-11-23T18:47:40.667Z,14.30
2022-11-23T18:50:09.265Z,13.87
2022-11-23T18:52:37.133Z,14.80
2022-11-23T18:55:05.593Z,14.07
2022-11-23T18:57:33.220Z,13.90
2022-11-23T19:00:02.610Z,13.47
2022-11-23T19:02:30.501Z,12.37
2022-11-23T19:04:58.216Z,13.07
2022-11-23T19:07:27.299Z,12.67
2022-11-23T19:09:55.303Z,11.17
2022-11-23T19:12:23.064Z,11.07
2022-11-23T19:14:51.051Z,9.97
2022-11-23T19:17:20.165Z,9.97
2022-11-23T19:19:47.875Z,9.53
2022-11-23T19:22:15.524Z,8.80
2022-11-23T19:24:43.220Z,8.67
2022-11-23T19:27:11.007Z,9.00
2022-11-23T19:29:38.883Z,9.10
2022-11-23T19:32:06.973Z,8.47
2022-11-23T19:34:36.511Z,8.23
2022-11-23T19:37:04.228Z,8.87
2022-11-23T19:39:32.258Z,8.80
2022-11-23T19:42:00.532Z,8.43
2022-11-23T19:44:28.280Z,7.97
2022-11-23T19:46:56.022Z,7.63
2022-11-23T19:49:23.797Z,8.53
2022-11-23T19:51:53.715Z,8.83
2022-11-23T19:54:21.408Z,9.40
2022-11-23T19:56:50.488Z,10.20
2022-11-23T19:59:18.293Z,10.67
2022-11-23T20:01:46.087Z,11.07
2022-11-23T20:04:13.903Z,10.53
2022-11-23T20:06:42.995Z,10.67
2022-11-23T20:09:13.441Z,10.03
2022-11-23T20:11:43.048Z,10.53
2022-11-23T20:14:13.068Z,10.80
2022-11-23T20:16:40.887Z,10.33
2022-11-23T20:19:10.258Z,10.17
2022-11-23T20:21:38.486Z,9.70
2022-11-23T20:24:08.399Z,9.33
2022-11-23T20:26:37.896Z,10.63
2022-11-23T20:29:06.362Z,10.17
2022-11-23T20:31:34.772Z,12.40
2022-11-23T20:34:06.835Z,11.40
2022-11-23T20:36:36.491Z,11.40
2022-11-23T20:39:05.755Z,11.30
2022-11-23T20:41:34.459Z,10.83
2022-11-23T20:44:04.933Z,10.70
2022-11-23T20:49:21.377Z,9.37
2022-11-23T20:51:49.063Z,9.53
2022-11-23T20:54:16.743Z,10.50
2022-11-23T20:56:44.427Z,10.10
2022-11-23T20:59:13.675Z,10.13
2022-11-23T21:01:41.425Z,10.60
2022-11-23T21:04:09.679Z,10.00
2022-11-23T21:06:39.675Z,9.17
2022-11-23T21:09:08.775Z,9.10
2022-11-23T21:11:53.999Z,7.97
2022-11-23T21:17:11.386Z,8.77
2022-11-23T21:19:40.803Z,8.30
2022-11-23T21:22:09.985Z,7.63
2022-11-23T21:24:38.048Z,7.67
2022-11-23T21:27:07.328Z,7.23
2022-11-23T21:29:35.404Z,8.10
2022-11-23T21:32:03.588Z,7.73
2022-11-23T21:34:32.970Z,7.60
2022-11-23T21:37:01.034Z,7.33
2022-11-23T21:39:30.893Z,7.90
2022-11-23T21:41:58.765Z,7.63
2022-11-23T21:44:26.529Z,7.80
2022-11-23T21:46:54.229Z,7.20
2022-11-23T21:49:21.992Z,6.90
2022-11-23T21:51:51.036Z,7.10
2022-11-23T21:54:18.708Z,7.50
2022-11-23T21:56:47.224Z,7.40
2022-11-23T21:59:15.447Z,6.80
2022-11-23T22:01:43.232Z,7.10
2022-11-23T22:04:12.836Z,7.10
2022-11-23T22:06:41.907Z,8.20
2022-11-23T22:09:11.258Z,8.00
2022-11-23T22:11:40.989Z,7.97
2022-11-23T22:14:11.626Z,7.33
2022-11-23T22:16:42.322Z,7.93
2022-11-23T22:19:11.682Z,7.07
2022-11-23T22:21:40.694Z,7.50
2022-11-23T22:24:13.598Z,7.50
2022-11-23T22:26:41.590Z,7.77
2022-11-23T22:29:10.773Z,7.50
2022-11-23T22:31:39.009Z,8.00
2022-11-23T22:34:09.140Z,7.40
2022-11-23T22:36:36.824Z,7.67
2022-11-23T22:39:06.242Z,9.23
2022-11-23T22:41:37.055Z,8.10
2022-11-23T22:44:06.428Z,7.50
2022-11-23T22:46:34.266Z,8.33
2022-11-23T22:49:02.096Z,7.60
2022-11-23T22:51:30.256Z,7.83
2022-11-23T22:53:59.650Z,8.03
2022-11-23T22:56:28.698Z,8.13
2022-11-23T22:58:57.712Z,8.80
2022-11-23T23:01:27.385Z,8.50
2022-11-23T23:03:56.052Z,7.97
2022-11-23T23:06:25.149Z,8.43
2022-11-23T23:08:55.440Z,8.03
2022-11-23T23:11:23.195Z,7.93
2022-11-23T23:13:50.907Z,8.00
2022-11-23T23:16:19.986Z,7.73
2022-11-23T23:18:47.674Z,7.87
2022-11-23T23:21:19.441Z,7.47
2022-11-23T23:23:48.719Z,6.90
2022-11-23T23:26:18.563Z,7.80
2022-11-23T23:28:46.400Z,7.00
2022-11-23T23:31:16.105Z,7.07
2022-11-23T23:33:45.756Z,6.57
2022-11-23T23:36:15.026Z,6.50
2022-11-23T23:38:42.886Z,7.27
2022-11-23T23:41:11.651Z,6.40
2022-11-23T23:43:39.873Z,6.53
2022-11-23T23:46:09.950Z,6.60
2022-11-23T23:48:38.746Z,6.77
2022-11-23T23:51:08.864Z,6.43
2022-11-23T23:53:36.679Z,6.50
2022-11-23T23:56:06.114Z,5.97
2022-11-23T23:58:33.860Z,6.10
